sensor_id;sensor_type;location;lat;lon;timestamp;pressure;altitude;pressure_sealevel;temperature;humidity
24858;BME280;12935;50.782;6.074;2023-05-09T00:00:44;99701.81;;;14.94;100.00
24858;BME280;12935;50.782;6.074;2023-05-09T00:03:10;99695.13;;;14.95;100.00
24858;BME280;12935;50.782;6.074;2023-05-09T00:05:37;99700.53;;;14.98;100.00
24858;BME280;12935;50.782;6.074;2023-05-09T00:08:02;99692.28;;;14.98;100.00
24858;BME280;12935;50.782;6.074;2023-05-09T00:10:27;99702.78;;;15.07;100.00
24858;BME280;12935;50.782;6.074;2023-05-09T00:12:53;99693.06;;;14.99;100.00
24858;BME280;12935;50.782;6.074;2023-05-09T00:15:18;99703.84;;;14.90;100.00
24858;BME280;12935;50.782;6.074;2023-05-09T00:17:43;99698.28;;;14.93;100.00
24858;BME280;12935;50.782;6.074;2023-05-09T00:20:10;99696.13;;;15.04;100.00
24858;BME280;12935;50.782;6.074;2023-05-09T00:22:36;99698.16;;;15.00;100.00
24858;BME280;12935;50.782;6.074;2023-05-09T00:25:02;99693.63;;;14.90;100.00
24858;BME280;12935;50.782;6.074;2023-05-09T00:27:27;99698.22;;;14.97;100.00
24858;BME280;12935;50.782;6.074;2023-05-09T00:29:55;99682.00;;;15.02;100.00
24858;BME280;12935;50.782;6.074;2023-05-09T00:32:20;99690.72;;;14.97;100.00
24858;BME280;12935;50.782;6.074;2023-05-09T00:34:45;99680.41;;;15.05;100.00
24858;BME280;12935;50.782;6.074;2023-05-09T00:37:10;99670.22;;;15.02;100.00
24858;BME280;12935;50.782;6.074;2023-05-09T00:39:36;99667.06;;;15.03;100.00
24858;BME280;12935;50.782;6.074;2023-05-09T00:42:01;99667.84;;;15.04;100.00
24858;BME280;12935;50.782;6.074;2023-05-09T00:44:27;99682.22;;;15.12;100.00
24858;BME280;12935;50.782;6.074;2023-05-09T00:46:53;99675.47;;;15.16;100.00
24858;BME280;12935;50.782;6.074;2023-05-09T00:49:19;99670.81;;;15.13;100.00
24858;BME280;12935;50.782;6.074;2023-05-09T00:51:44;99658.69;;;15.11;100.00
24858;BME280;12935;50.782;6.074;2023-05-09T00:54:10;99662.06;;;15.18;100.00
24858;BME280;12935;50.782;6.074;2023-05-09T00:56:36;99659.25;;;15.22;100.00
24858;BME280;12935;50.782;6.074;2023-05-09T00:59:02;99657.72;;;15.21;100.00
24858;BME280;12935;50.782;6.074;2023-05-09T01:01:27;99652.16;;;15.24;100.00
24858;BME280;12935;50.782;6.074;2023-05-09T01:03:53;99644.16;;;15.10;100.00
24858;BME280;12935;50.782;6.074;2023-05-09T01:06:37;99640.66;;;15.06;100.00
24858;BME280;12935;50.782;6.074;2023-05-09T01:09:16;99630.91;;;15.01;100.00
24858;BME280;12935;50.782;6.074;2023-05-09T01:11:49;99632.41;;;15.06;100.00
24858;BME280;12935;50.782;6.074;2023-05-09T01:14:29;99624.00;;;15.13;100.00
24858;BME280;12935;50.782;6.074;2023-05-09T01:19:59;99621.00;;;15.07;100.00
24858;BME280;12935;50.782;6.074;2023-05-09T01:22:32;99613.16;;;15.06;100.00
24858;BME280;12935;50.782;6.074;2023-05-09T01:27:57;99617.56;;;15.00;100.00
24858;BME280;12935;50.782;6.074;2023-05-09T01:30:25;99610.81;;;15.04;100.00
24858;BME280;12935;50.782;6.074;2023-05-09T01:32:52;99605.25;;;15.08;100.00
24858;BME280;12935;50.782;6.074;2023-05-09T01:35:23;99599.34;;;15.09;100.00
24858;BME280;12935;50.782;6.074;2023-05-09T01:37:50;99603.97;;;15.13;100.00
24858;BME280;12935;50.782;6.074;2023-05-09T01:40:18;99597.06;;;15.04;100.00
24858;BME280;12935;50.782;6.074;2023-05-09T01:43:01;99586.69;;;15.12;100.00
24858;BME280;12935;50.782;6.074;2023-05-09T01:45:28;99591.75;;;15.14;100.00
24858;BME280;12935;50.782;6.074;2023-05-09T01:47:54;99593.31;;;15.15;100.00
24858;BME280;12935;50.782;6.074;2023-05-09T01:50:21;99589.00;;;15.14;100.00
24858;BME280;12935;50.782;6.074;2023-05-09T01:52:48;99592.97;;;15.13;100.00
24858;BME280;12935;50.782;6.074;2023-05-09T01:55:15;99585.56;;;15.09;100.00
24858;BME280;12935;50.782;6.074;2023-05-09T01:57:43;99580.50;;;15.08;100.00
24858;BME280;12935;50.782;6.074;2023-05-09T02:00:09;99578.56;;;15.05;100.00
24858;BME280;12935;50.782;6.074;2023-05-09T02:02:37;99581.88;;;14.96;100.00
24858;BME280;12935;50.782;6.074;2023-05-09T02:05:04;99577.50;;;14.99;100.00
24858;BME280;12935;50.782;6.074;2023-05-09T02:07:31;99574.63;;;15.06;100.00
24858;BME280;12935;50.782;6.074;2023-05-09T02:09:57;99577.66;;;15.12;100.00
24858;BME280;12935;50.782;6.074;2023-05-09T02:12:23;99569.69;;;15.17;100.00
24858;BME280;12935;50.782;6.074;2023-05-09T02:14:49;99567.66;;;15.21;100.00
24858;BME280;12935;50.782;6.074;2023-05-09T02:17:14;99571.59;;;15.20;100.00
24858;BME280;12935;50.782;6.074;2023-05-09T02:19:41;99572.91;;;15.12;100.00
24858;BME280;12935;50.782;6.074;2023-05-09T02:22:07;99576.97;;;15.07;100.00
24858;BME280;12935;50.782;6.074;2023-05-09T02:24:33;99575.66;;;15.12;100.00
24858;BME280;12935;50.782;6.074;2023-05-09T02:26:59;99580.41;;;15.12;100.00
24858;BME280;12935;50.782;6.074;2023-05-09T02:29:37;99580.34;;;15.15;100.00
24858;BME280;12935;50.782;6.074;2023-05-09T02:32:13;99570.75;;;15.23;100.00
24858;BME280;12935;50.782;6.074;2023-05-09T02:34:40;99584.88;;;15.25;100.00
24858;BME280;12935;50.782;6.074;2023-05-09T02:37:06;99578.25;;;15.23;100.00
24858;BME280;12935;50.782;6.074;2023-05-09T02:39:32;99577.47;;;15.22;100.00
24858;BME280;12935;50.782;6.074;2023-05-09T02:42:05;99570.75;;;15.23;100.00
24858;BME280;12935;50.782;6.074;2023-05-09T02:44:31;99563.03;;;15.15;100.00
24858;BME280;12935;50.782;6.074;2023-05-09T02:46:57;99565.31;;;15.20;100.00
24858;BME280;12935;50.782;6.074;2023-05-09T02:49:22;99566.81;;;15.24;100.00
24858;BME280;12935;50.782;6.074;2023-05-09T02:51:47;99576.47;;;15.32;100.00
24858;BME280;12935;50.782;6.074;2023-05-09T02:54:12;99569.47;;;15.28;100.00
24858;BME280;12935;50.782;6.074;2023-05-09T02:56:38;99568.56;;;15.34;100.00
24858;BME280;12935;50.782;6.074;2023-05-09T02:59:03;99564.84;;;15.25;100.00
24858;BME280;12935;50.782;6.074;2023-05-09T03:01:28;99565.59;;;15.05;100.00
24858;BME280;12935;50.782;6.074;2023-05-09T03:03:53;99566.38;;;15.06;100.00
24858;BME280;12935;50.782;6.074;2023-05-09T03:06:19;99558.75;;;15.14;100.00
24858;BME280;12935;50.782;6.074;2023-05-09T03:08:44;99564.19;;;15.17;100.00
24858;BME280;12935;50.782;6.074;2023-05-09T03:11:09;99557.91;;;15.17;100.00
24858;BME280;12935;50.782;6.074;2023-05-09T03:13:35;99554.38;;;15.16;100.00
24858;BME280;12935;50.782;6.074;2023-05-09T03:16:00;99547.03;;;15.09;100.00
24858;BME280;12935;50.782;6.074;2023-05-09T03:18:25;99544.19;;;15.13;100.00
24858;BME280;12935;50.782;6.074;2023-05-09T03:20:50;99534.31;;;15.16;100.00
24858;BME280;12935;50.782;6.074;2023-05-09T03:23:16;99527.69;;;15.13;100.00
24858;BME280;12935;50.782;6.074;2023-05-09T03:25:41;99533.19;;;15.13;100.00
24858;BME280;12935;50.782;6.074;2023-05-09T03:28:06;99527.31;;;15.11;100.00
24858;BME280;12935;50.782;6.074;2023-05-09T03:30:31;99527.00;;;15.09;100.00
24858;BME280;12935;50.782;6.074;2023-05-09T03:32:57;99522.69;;;15.08;100.00
24858;BME280;12935;50.782;6.074;2023-05-09T03:35:22;99513.25;;;15.09;100.00
24858;BME280;12935;50.782;6.074;2023-05-09T03:37:47;99508.94;;;15.08;100.00
24858;BME280;12935;50.782;6.074;2023-05-09T03:40:12;99514.63;;;14.97;100.00
24858;BME280;12935;50.782;6.074;2023-05-09T03:42:38;99507.25;;;14.94;100.00
24858;BME280;12935;50.782;6.074;2023-05-09T03:45:03;99509.47;;;14.99;100.00
24858;BME280;12935;50.782;6.074;2023-05-09T03:47:29;99513.31;;;15.05;100.00
24858;BME280;12935;50.782;6.074;2023-05-09T03:49:54;99507.72;;;15.09;100.00
24858;BME280;12935;50.782;6.074;2023-05-09T03:52:19;99511.75;;;15.04;100.00
24858;BME280;12935;50.782;6.074;2023-05-09T03:54:45;99521.84;;;14.91;100.00
24858;BME280;12935;50.782;6.074;2023-05-09T03:57:10;99509.47;;;14.80;100.00
24858;BME280;12935;50.782;6.074;2023-05-09T03:59:35;99501.91;;;14.84;100.00
24858;BME280;12935;50.782;6.074;2023-05-09T04:02:01;99503.72;;;14.94;100.00
24858;BME280;12935;50.782;6.074;2023-05-09T04:04:26;99505.88;;;15.02;100.00
24858;BME280;12935;50.782;6.074;2023-05-09T04:06:51;99506.97;;;15.08;100.00
24858;BME280;12935;50.782;6.074;2023-05-09T04:09:17;99511.03;;;15.00;100.00
24858;BME280;12935;50.782;6.074;2023-05-09T04:11:42;99507.09;;;15.01;100.00
24858;BME280;12935;50.782;6.074;2023-05-09T04:14:07;99501.53;;;15.05;100.00
24858;BME280;12935;50.782;6.074;2023-05-09T04:16:33;99476.25;;;14.90;100.00
24858;BME280;12935;50.782;6.074;2023-05-09T04:18:58;99508.94;;;15.08;100.00
24858;BME280;12935;50.782;6.074;2023-05-09T04:21:23;99500.03;;;15.00;100.00
24858;BME280;12935;50.782;6.074;2023-05-09T04:23:49;99511.41;;;15.02;100.00
24858;BME280;12935;50.782;6.074;2023-05-09T04:26:14;99508.50;;;14.90;100.00
24858;BME280;12935;50.782;6.074;2023-05-09T04:28:42;99510.41;;;14.93;100.00
24858;BME280;12935;50.782;6.074;2023-05-09T04:31:07;99495.78;;;14.96;100.00
24858;BME280;12935;50.782;6.074;2023-05-09T04:33:32;99507.09;;;15.01;100.00
24858;BME280;12935;50.782;6.074;2023-05-09T04:35:58;99506.25;;;15.04;100.00
24858;BME280;12935;50.782;6.074;2023-05-09T04:38:23;99511.03;;;15.00;100.00
24858;BME280;12935;50.782;6.074;2023-05-09T04:40:49;99500.69;;;15.08;100.00
24858;BME280;12935;50.782;6.074;2023-05-09T04:43:14;99503.50;;;15.04;100.00
24858;BME280;12935;50.782;6.074;2023-05-09T04:45:39;99505.03;;;15.05;100.00
24858;BME280;12935;50.782;6.074;2023-05-09T04:48:05;99491.91;;;15.13;100.00
24858;BME280;12935;50.782;6.074;2023-05-09T04:50:30;99493.09;;;15.12;100.00
24858;BME280;12935;50.782;6.074;2023-05-09T04:52:56;99494.22;;;15.15;100.00
24858;BME280;12935;50.782;6.074;2023-05-09T04:55:21;99495.44;;;15.14;100.00
24858;BME280;12935;50.782;6.074;2023-05-09T04:57:46;99486.81;;;15.12;100.00
24858;BME280;12935;50.782;6.074;2023-05-09T05:00:12;99489.09;;;15.17;100.00
24858;BME280;12935;50.782;6.074;2023-05-09T05:02:38;99484.00;;;15.15;100.00
24858;BME280;12935;50.782;6.074;2023-05-09T05:05:04;99481.13;;;15.22;100.00
24858;BME280;12935;50.782;6.074;2023-05-09T05:07:30;99477.72;;;15.15;100.00
24858;BME280;12935;50.782;6.074;2023-05-09T05:09:55;99467.06;;;15.17;100.00
24858;BME280;12935;50.782;6.074;2023-05-09T05:12:20;99470.88;;;15.23;100.00
24858;BME280;12935;50.782;6.074;2023-05-09T05:14:46;99463.41;;;15.23;100.00
24858;BME280;12935;50.782;6.074;2023-05-09T05:17:11;99463.41;;;15.23;100.00
24858;BME280;12935;50.782;6.074;2023-05-09T05:19:36;99468.56;;;15.21;100.00
24858;BME280;12935;50.782;6.074;2023-05-09T05:22:02;99461.44;;;15.24;100.00
24858;BME280;12935;50.782;6.074;2023-05-09T05:24:27;99449.53;;;15.27;100.00
24858;BME280;12935;50.782;6.074;2023-05-09T05:26:52;99448.28;;;15.31;100.00
24858;BME280;12935;50.782;6.074;2023-05-09T05:29:18;99436.75;;;15.36;100.00
24858;BME280;12935;50.782;6.074;2023-05-09T05:31:44;99438.75;;;15.36;100.00
24858;BME280;12935;50.782;6.074;2023-05-09T05:34:09;99447.69;;;15.40;100.00
24858;BME280;12935;50.782;6.074;2023-05-09T05:36:35;99440.47;;;15.46;100.00
24858;BME280;12935;50.782;6.074;2023-05-09T05:39:00;99442.63;;;15.38;100.00
24858;BME280;12935;50.782;6.074;2023-05-09T05:41:25;99435.38;;;15.44;100.00
24858;BME280;12935;50.782;6.074;2023-05-09T05:43:51;99447.09;;;15.49;100.00
24858;BME280;12935;50.782;6.074;2023-05-09T05:46:16;99433.25;;;15.52;100.00
24858;BME280;12935;50.782;6.074;2023-05-09T05:48:41;99433.69;;;15.51;100.00
24858;BME280;12935;50.782;6.074;2023-05-09T05:51:06;99434.75;;;15.57;100.00
24858;BME280;12935;50.782;6.074;2023-05-09T05:53:32;99435.88;;;15.59;100.00
24858;BME280;12935;50.782;6.074;2023-05-09T05:55:57;99430.97;;;15.67;100.00
24858;BME280;12935;50.782;6.074;2023-05-09T05:58:22;99419.44;;;15.72;100.00
24858;BME280;12935;50.782;6.074;2023-05-09T06:00:50;99418.41;;;15.82;100.00
24858;BME280;12935;50.782;6.074;2023-05-09T06:03:16;99413.84;;;15.92;100.00
24858;BME280;12935;50.782;6.074;2023-05-09T06:05:42;99418.47;;;15.95;100.00
24858;BME280;12935;50.782;6.074;2023-05-09T06:08:08;99412.25;;;16.07;100.00
24858;BME280;12935;50.782;6.074;2023-05-09T06:10:33;99410.88;;;16.15;100.00
24858;BME280;12935;50.782;6.074;2023-05-09T06:12:58;99407.50;;;16.24;100.00
24858;BME280;12935;50.782;6.074;2023-05-09T06:15:24;99395.44;;;16.34;100.00
24858;BME280;12935;50.782;6.074;2023-05-09T06:17:49;99399.97;;;16.40;100.00
24858;BME280;12935;50.782;6.074;2023-05-09T06:20:14;99388.94;;;16.40;100.00
24858;BME280;12935;50.782;6.074;2023-05-09T06:22:40;99390.53;;;16.54;100.00
24858;BME280;12935;50.782;6.074;2023-05-09T06:25:05;99388.00;;;16.60;100.00
24858;BME280;12935;50.782;6.074;2023-05-09T06:27:31;99386.56;;;16.55;100.00
24858;BME280;12935;50.782;6.074;2023-05-09T06:29:56;99380.59;;;16.57;100.00
24858;BME280;12935;50.782;6.074;2023-05-09T06:32:21;99381.25;;;16.48;100.00
24858;BME280;12935;50.782;6.074;2023-05-09T06:34:47;99378.19;;;16.59;100.00
24858;BME280;12935;50.782;6.074;2023-05-09T06:37:13;99369.75;;;16.66;100.00
24858;BME280;12935;50.782;6.074;2023-05-09T06:39:38;99374.38;;;16.69;100.00
24858;BME280;12935;50.782;6.074;2023-05-09T06:42:03;99363.81;;;16.67;100.00
24858;BME280;12935;50.782;6.074;2023-05-09T06:44:28;99361.13;;;16.64;100.00
24858;BME280;12935;50.782;6.074;2023-05-09T06:46:54;99366.72;;;16.60;100.00
24858;BME280;12935;50.782;6.074;2023-05-09T06:49:19;99368.16;;;16.52;100.00
24858;BME280;12935;50.782;6.074;2023-05-09T06:51:44;99363.47;;;16.65;100.00
24858;BME280;12935;50.782;6.074;2023-05-09T06:54:10;99374.84;;;16.67;100.00
24858;BME280;12935;50.782;6.074;2023-05-09T06:56:35;99369.34;;;16.80;100.00
24858;BME280;12935;50.782;6.074;2023-05-09T06:59:00;99362.94;;;16.83;100.00
24858;BME280;12935;50.782;6.074;2023-05-09T07:01:26;99354.66;;;16.83;100.00
24858;BME280;12935;50.782;6.074;2023-05-09T07:03:51;99356.22;;;16.97;100.00
24858;BME280;12935;50.782;6.074;2023-05-09T07:06:16;99354.00;;;17.04;100.00
24858;BME280;12935;50.782;6.074;2023-05-09T07:08:42;99347.84;;;17.13;100.00
24858;BME280;12935;50.782;6.074;2023-05-09T07:11:07;99344.53;;;17.31;100.00
24858;BME280;12935;50.782;6.074;2023-05-09T07:13:32;99339.06;;;17.52;100.00
24858;BME280;12935;50.782;6.074;2023-05-09T07:15:57;99339.88;;;17.40;100.00
24858;BME280;12935;50.782;6.074;2023-05-09T07:18:23;99327.25;;;17.65;100.00
24858;BME280;12935;50.782;6.074;2023-05-09T07:20:48;99324.66;;;17.83;100.00
24858;BME280;12935;50.782;6.074;2023-05-09T07:23:13;99327.19;;;17.90;100.00
24858;BME280;12935;50.782;6.074;2023-05-09T07:25:39;99317.09;;;17.62;100.00
24858;BME280;12935;50.782;6.074;2023-05-09T07:28:04;99321.41;;;17.63;100.00
24858;BME280;12935;50.782;6.074;2023-05-09T07:30:30;99317.53;;;17.95;100.00
24858;BME280;12935;50.782;6.074;2023-05-09T07:32:55;99319.75;;;18.00;100.00
24858;BME280;12935;50.782;6.074;2023-05-09T07:35:20;99320.56;;;17.87;100.00
24858;BME280;12935;50.782;6.074;2023-05-09T07:37:46;99307.03;;;18.02;100.00
24858;BME280;12935;50.782;6.074;2023-05-09T07:40:11;99321.06;;;18.08;100.00
24858;BME280;12935;50.782;6.074;2023-05-09T07:42:37;99305.69;;;18.07;100.00
24858;BME280;12935;50.782;6.074;2023-05-09T07:45:03;99316.88;;;18.03;100.00
24858;BME280;12935;50.782;6.074;2023-05-09T07:47:30;99312.94;;;18.13;100.00
24858;BME280;12935;50.782;6.074;2023-05-09T07:49:57;99315.91;;;18.19;100.00
24858;BME280;12935;50.782;6.074;2023-05-09T07:52:22;99307.59;;;17.97;100.00
24858;BME280;12935;50.782;6.074;2023-05-09T07:54:47;99302.97;;;18.16;100.00
24858;BME280;12935;50.782;6.074;2023-05-09T07:57:13;99306.97;;;18.37;100.00
24858;BME280;12935;50.782;6.074;2023-05-09T07:59:38;99299.91;;;18.36;100.00
24858;BME280;12935;50.782;6.074;2023-05-09T08:02:04;99298.41;;;18.44;100.00
24858;BME280;12935;50.782;6.074;2023-05-09T08:04:29;99297.06;;;18.48;100.00
24858;BME280;12935;50.782;6.074;2023-05-09T08:06:54;99290.09;;;18.44;100.00
24858;BME280;12935;50.782;6.074;2023-05-09T08:09:19;99287.84;;;18.51;100.00
24858;BME280;12935;50.782;6.074;2023-05-09T08:11:45;99282.06;;;18.37;100.00
24858;BME280;12935;50.782;6.074;2023-05-09T08:14:11;99279.69;;;18.04;100.00
24858;BME280;12935;50.782;6.074;2023-05-09T08:16:36;99269.38;;;18.27;100.00
24858;BME280;12935;50.782;6.074;2023-05-09T08:19:01;99263.72;;;18.30;100.00
24858;BME280;12935;50.782;6.074;2023-05-09T08:21:27;99261.13;;;18.57;100.00
24858;BME280;12935;50.782;6.074;2023-05-09T08:23:52;99270.97;;;18.80;100.00
24858;BME280;12935;50.782;6.074;2023-05-09T08:26:18;99259.56;;;18.78;100.00
24858;BME280;12935;50.782;6.074;2023-05-09T08:28:43;99252.47;;;18.77;100.00
24858;BME280;12935;50.782;6.074;2023-05-09T08:31:08;99254.56;;;18.42;100.00
24858;BME280;12935;50.782;6.074;2023-05-09T08:33:34;99256.25;;;18.62;100.00
24858;BME280;12935;50.782;6.074;2023-05-09T08:35:59;99246.53;;;18.88;100.00
24858;BME280;12935;50.782;6.074;2023-05-09T08:38:24;99245.38;;;19.16;100.00
24858;BME280;12935;50.782;6.074;2023-05-09T08:40:50;99245.53;;;19.13;100.00
24858;BME280;12935;50.782;6.074;2023-05-09T08:43:15;99239.25;;;19.31;100.00
24858;BME280;12935;50.782;6.074;2023-05-09T08:45:50;99247.13;;;19.41;100.00
24858;BME280;12935;50.782;6.074;2023-05-09T08:48:18;99242.66;;;19.44;100.00
24858;BME280;12935;50.782;6.074;2023-05-09T08:50:43;99234.66;;;19.46;100.00
24858;BME280;12935;50.782;6.074;2023-05-09T08:53:10;99233.22;;;19.23;100.00
24858;BME280;12935;50.782;6.074;2023-05-09T08:55:35;99237.22;;;19.13;100.00
24858;BME280;12935;50.782;6.074;2023-05-09T08:58:01;99230.72;;;19.07;100.00
24858;BME280;12935;50.782;6.074;2023-05-09T09:00:28;99225.63;;;18.87;100.00
24858;BME280;12935;50.782;6.074;2023-05-09T09:02:55;99227.19;;;19.06;100.00
24858;BME280;12935;50.782;6.074;2023-05-09T09:05:22;99223.41;;;19.40;100.00
24858;BME280;12935;50.782;6.074;2023-05-09T09:07:48;99221.91;;;19.57;100.00
24858;BME280;12935;50.782;6.074;2023-05-09T09:10:13;99219.91;;;19.49;100.00
24858;BME280;12935;50.782;6.074;2023-05-09T09:12:40;99214.84;;;19.75;100.00
24858;BME280;12935;50.782;6.074;2023-05-09T09:15:09;99225.00;;;19.69;100.00
24858;BME280;12935;50.782;6.074;2023-05-09T09:17:41;99214.22;;;19.71;100.00
24858;BME280;12935;50.782;6.074;2023-05-09T09:20:10;99214.22;;;19.80;100.00
24858;BME280;12935;50.782;6.074;2023-05-09T09:22:41;99220.81;;;19.46;100.00
24858;BME280;12935;50.782;6.074;2023-05-09T09:25:07;99208.97;;;19.45;100.00
24858;BME280;12935;50.782;6.074;2023-05-09T09:27:32;99201.91;;;19.63;100.00
24858;BME280;12935;50.782;6.074;2023-05-09T09:30:16;99194.03;;;19.88;100.00
24858;BME280;12935;50.782;6.074;2023-05-09T09:32:42;99193.69;;;20.05;100.00
24858;BME280;12935;50.782;6.074;2023-05-09T09:35:09;99198.94;;;20.03;100.00
24858;BME280;12935;50.782;6.074;2023-05-09T09:37:36;99192.63;;;19.93;100.00
24858;BME280;12935;50.782;6.074;2023-05-09T09:40:07;99195.06;;;20.00;100.00
24858;BME280;12935;50.782;6.074;2023-05-09T09:42:44;99189.03;;;20.20;100.00
24858;BME280;12935;50.782;6.074;2023-05-09T09:45:14;99183.75;;;20.31;100.00
24858;BME280;12935;50.782;6.074;2023-05-09T09:47:42;99181.75;;;20.41;100.00
24858;BME280;12935;50.782;6.074;2023-05-09T09:50:12;99181.47;;;20.29;100.00
24858;BME280;12935;50.782;6.074;2023-05-09T09:53:04;99173.16;;;20.20;100.00
24858;BME280;12935;50.782;6.074;2023-05-09T09:55:30;99164.44;;;19.94;100.00
24858;BME280;12935;50.782;6.074;2023-05-09T09:57:56;99158.91;;;19.85;100.00
24858;BME280;12935;50.782;6.074;2023-05-09T10:00:26;99159.56;;;19.62;100.00
24858;BME280;12935;50.782;6.074;2023-05-09T10:02:52;99149.09;;;19.66;100.00
24858;BME280;12935;50.782;6.074;2023-05-09T10:05:28;99150.56;;;19.94;100.00
24858;BME280;12935;50.782;6.074;2023-05-09T10:07:58;99142.97;;;20.13;100.00
24858;BME280;12935;50.782;6.074;2023-05-09T10:10:31;99142.69;;;20.11;100.00
24858;BME280;12935;50.782;6.074;2023-05-09T10:13:09;99132.88;;;19.92;100.00
24858;BME280;12935;50.782;6.074;2023-05-09T10:15:35;99134.94;;;19.64;100.00
24858;BME280;12935;50.782;6.074;2023-05-09T10:18:02;99137.09;;;19.51;100.00
24858;BME280;12935;50.782;6.074;2023-05-09T10:20:29;99139.06;;;19.41;100.00
24858;BME280;12935;50.782;6.074;2023-05-09T10:22:57;99133.22;;;19.57;100.00
24858;BME280;12935;50.782;6.074;2023-05-09T10:25:38;99142.00;;;19.47;100.00
24858;BME280;12935;50.782;6.074;2023-05-09T10:28:11;99137.22;;;19.56;100.00
24858;BME280;12935;50.782;6.074;2023-05-09T10:30:49;99126.59;;;19.55;100.00
24858;BME280;12935;50.782;6.074;2023-05-09T10:33:25;99118.75;;;19.53;100.00
24858;BME280;12935;50.782;6.074;2023-05-09T10:35:54;99123.84;;;19.55;100.00
24858;BME280;12935;50.782;6.074;2023-05-09T10:38:21;99127.06;;;19.44;100.00
24858;BME280;12935;50.782;6.074;2023-05-09T10:40:49;99120.28;;;19.18;100.00
24858;BME280;12935;50.782;6.074;2023-05-09T10:43:15;99120.13;;;19.40;100.00
24858;BME280;12935;50.782;6.074;2023-05-09T10:45:41;99115.38;;;19.58;100.00
24858;BME280;12935;50.782;6.074;2023-05-09T10:48:07;99114.28;;;19.47;100.00
24858;BME280;12935;50.782;6.074;2023-05-09T10:50:34;99112.44;;;19.44;100.00
24858;BME280;12935;50.782;6.074;2023-05-09T10:55:47;99115.69;;;19.51;100.00
24858;BME280;12935;50.782;6.074;2023-05-09T11:00:45;99106.91;;;19.16;100.00
24858;BME280;12935;50.782;6.074;2023-05-09T11:03:11;99099.19;;;19.30;100.00
24858;BME280;12935;50.782;6.074;2023-05-09T11:05:40;99101.66;;;19.37;100.00
24858;BME280;12935;50.782;6.074;2023-05-09T11:10:46;99098.59;;;19.53;100.00
24858;BME280;12935;50.782;6.074;2023-05-09T11:13:12;99089.81;;;19.64;100.00
24858;BME280;12935;50.782;6.074;2023-05-09T11:18:23;99090.44;;;19.13;100.00
24858;BME280;12935;50.782;6.074;2023-05-09T11:20:48;99074.31;;;18.44;100.00
24858;BME280;12935;50.782;6.074;2023-05-09T11:23:21;99076.16;;;18.47;100.00
24858;BME280;12935;50.782;6.074;2023-05-09T11:25:49;99071.19;;;18.82;100.00
24858;BME280;12935;50.782;6.074;2023-05-09T11:28:29;99079.66;;;18.97;100.00
24858;BME280;12935;50.782;6.074;2023-05-09T11:31:15;99080.13;;;18.95;100.00
24858;BME280;12935;50.782;6.074;2023-05-09T11:33:42;99076.88;;;19.06;100.00
24858;BME280;12935;50.782;6.074;2023-05-09T11:36:15;99067.34;;;18.70;100.00
24858;BME280;12935;50.782;6.074;2023-05-09T11:38:43;99062.91;;;19.00;100.00
24858;BME280;12935;50.782;6.074;2023-05-09T11:41:08;99057.78;;;18.89;100.00
24858;BME280;12935;50.782;6.074;2023-05-09T11:43:35;99060.34;;;18.47;100.00
24858;BME280;12935;50.782;6.074;2023-05-09T11:46:02;99062.31;;;18.47;100.00
24858;BME280;12935;50.782;6.074;2023-05-09T11:48:27;99059.69;;;18.34;100.00
24858;BME280;12935;50.782;6.074;2023-05-09T11:50:53;99048.59;;;18.25;100.00
24858;BME280;12935;50.782;6.074;2023-05-09T11:53:18;99056.34;;;18.39;100.00
24858;BME280;12935;50.782;6.074;2023-05-09T11:55:43;99054.34;;;18.40;100.00
24858;BME280;12935;50.782;6.074;2023-05-09T11:58:09;99052.84;;;18.57;100.00
24858;BME280;12935;50.782;6.074;2023-05-09T12:00:34;99048.53;;;18.56;100.00
24858;BME280;12935;50.782;6.074;2023-05-09T12:03:04;99045.13;;;18.52;100.00
24858;BME280;12935;50.782;6.074;2023-05-09T12:05:29;99039.50;;;18.15;100.00
24858;BME280;12935;50.782;6.074;2023-05-09T12:08:01;99038.47;;;18.22;100.00
24858;BME280;12935;50.782;6.074;2023-05-09T12:10:28;99037.06;;;18.17;100.00
24858;BME280;12935;50.782;6.074;2023-05-09T12:12:53;99032.47;;;18.33;100.00
24858;BME280;12935;50.782;6.074;2023-05-09T12:15:20;99035.13;;;18.45;100.00
24858;BME280;12935;50.782;6.074;2023-05-09T12:17:46;99026.69;;;18.00;100.00
24858;BME280;12935;50.782;6.074;2023-05-09T12:20:12;99028.31;;;17.57;100.00
24858;BME280;12935;50.782;6.074;2023-05-09T12:22:37;99028.59;;;17.81;100.00
24858;BME280;12935;50.782;6.074;2023-05-09T12:25:07;99024.75;;;18.09;100.00
24858;BME280;12935;50.782;6.074;2023-05-09T12:27:35;99021.03;;;18.12;100.00
24858;BME280;12935;50.782;6.074;2023-05-09T12:30:01;99023.22;;;18.17;100.00
24858;BME280;12935;50.782;6.074;2023-05-09T12:32:28;99013.25;;;17.80;100.00
24858;BME280;12935;50.782;6.074;2023-05-09T12:34:57;99010.97;;;17.78;100.00
24858;BME280;12935;50.782;6.074;2023-05-09T12:37:24;99011.56;;;17.82;100.00
24858;BME280;12935;50.782;6.074;2023-05-09T12:40:09;99010.19;;;17.78;100.00
24858;BME280;12935;50.782;6.074;2023-05-09T12:42:42;99009.19;;;17.41;100.00
24858;BME280;12935;50.782;6.074;2023-05-09T12:45:08;99006.00;;;17.42;100.00
24858;BME280;12935;50.782;6.074;2023-05-09T12:47:34;99004.09;;;17.30;100.00
24858;BME280;12935;50.782;6.074;2023-05-09T12:50:04;99003.88;;;17.46;100.00
24858;BME280;12935;50.782;6.074;2023-05-09T12:52:34;99002.81;;;17.53;100.00
24858;BME280;12935;50.782;6.074;2023-05-09T12:55:07;99008.53;;;17.59;100.00
24858;BME280;12935;50.782;6.074;2023-05-09T12:57:34;98998.06;;;17.53;100.00
24858;BME280;12935;50.782;6.074;2023-05-09T13:00:01;99001.38;;;17.39;100.00
24858;BME280;12935;50.782;6.074;2023-05-09T13:02:33;98994.31;;;17.38;100.00
24858;BME280;12935;50.782;6.074;2023-05-09T13:07:45;98988.16;;;17.65;100.00